Wetterdaten: Woche 07.07.03 - 13.07.03 (KW28)
Datum Zeit Temperatur Luftfeuchte Luftdruck Regenmenge Wind Richtung Taupunkt Windchill
07.07.2003 00:00 15.0 C 84 % 1021.1 hPa 0.0 l/m 0.2 km/h (0 Bft) S 12.3 C 15.0 C
07.07.2003 01:00 14.6 C 87 % 1021.3 hPa 0.0 l/m 0.0 km/h (0 Bft) N 12.4 C 14.6 C
07.07.2003 02:00 14.0 C 89 % 1021.2 hPa 0.0 l/m 0.0 km/h (0 Bft) N 12.2 C 14.0 C
07.07.2003 03:00 13.3 C 95 % 1021.4 hPa 0.0 l/m 0.7 km/h (0 Bft) S 12.6 C 13.3 C
07.07.2003 04:00 12.5 C 98 % 1022.0 hPa 0.0 l/m 1.3 km/h (1 Bft) O-SO 12.2 C 12.5 C
07.07.2003 05:00 12.4 C 98 % 1022.1 hPa 0.0 l/m 0.0 km/h (0 Bft) N 12.0 C 12.4 C
07.07.2003 06:00 12.6 C 97 % 1022.1 hPa 0.0 l/m 0.0 km/h (0 Bft) N 12.2 C 12.6 C
07.07.2003 07:00 13.9 C 90 % 1022.3 hPa 0.0 l/m 0.0 km/h (0 Bft) N 12.3 C 13.9 C
07.07.2003 08:00 15.5 C 79 % 1022.7 hPa 0.0 l/m 0.1 km/h (0 Bft) N 11.9 C 15.5 C
07.07.2003 09:00 17.9 C 67 % 1022.3 hPa 0.0 l/m 1.0 km/h (0 Bft) W-NW 11.7 C 17.9 C
07.07.2003 10:00 20.4 C 57 % 1022.1 hPa 0.0 l/m 2.2 km/h (1 Bft) NW 11.5 C 20.4 C
07.07.2003 11:00 22.9 C 50 % 1022.1 hPa 0.0 l/m 1.7 km/h (1 Bft) O-SO 11.8 C 22.9 C
07.07.2003 12:00 24.9 C 41 % 1022.1 hPa 0.0 l/m 2.9 km/h (1 Bft) O-SO 10.5 C 24.9 C
07.07.2003 13:00 26.4 C 33 % 1021.2 hPa 0.0 l/m 2.4 km/h (1 Bft) NW 8.7 C 26.4 C
07.07.2003 14:00 27.6 C 33 % 1021.1 hPa 0.0 l/m 1.2 km/h (1 Bft) N-NW 9.7 C 27.6 C
07.07.2003 15:00 27.6 C 31 % 1021.1 hPa 0.0 l/m 3.3 km/h (1 Bft) NW 9.1 C 27.6 C
07.07.2003 16:00 28.2 C 27 % 1021.0 hPa 0.0 l/m 16.5 km/h (3 Bft) NW 7.4 C 28.2 C
07.07.2003 17:00 28.4 C 27 % 1021.1 hPa 0.0 l/m 13.0 km/h (3 Bft) NW 7.5 C 28.4 C
07.07.2003 18:00 27.5 C 32 % 1020.0 hPa 0.0 l/m 11.8 km/h (2 Bft) NW 9.3 C 27.5 C
07.07.2003 19:00 26.8 C 34 % 1020.1 hPa 0.0 l/m 10.3 km/h (2 Bft) NW 9.7 C 26.8 C
07.07.2003 20:00 25.7 C 40 % 1020.9 hPa 0.0 l/m 2.7 km/h (1 Bft) W-NW 10.9 C 25.7 C
07.07.2003 21:00 23.1 C 49 % 1021.2 hPa 0.0 l/m 0.2 km/h (0 Bft) O-NO 11.8 C 23.1 C
07.07.2003 22:00 20.3 C 59 % 1022.1 hPa 0.0 l/m 0.0 km/h (0 Bft) N 12.0 C 20.3 C
07.07.2003 23:00 18.3 C 67 % 1022.1 hPa 0.0 l/m 3.6 km/h (1 Bft) O-SO 12.0 C 18.3 C
08.07.2003 00:00 16.8 C 73 % 1022.1 hPa 0.0 l/m 0.0 km/h (0 Bft) N 11.8 C 16.8 C
08.07.2003 01:00 15.7 C 78 % 1022.1 hPa 0.0 l/m 0.0 km/h (0 Bft) N 11.9 C 15.7 C
08.07.2003 02:00 15.0 C 85 % 1022.1 hPa 0.0 l/m 1.3 km/h (1 Bft) O-SO 12.4 C 15.0 C
08.07.2003 03:00 14.4 C 87 % 1022.1 hPa 0.0 l/m 0.3 km/h (0 Bft) O-SO 12.3 C 14.4 C
08.07.2003 04:00 14.4 C 89 % 1022.1 hPa 0.0 l/m 0.0 km/h (0 Bft) N 12.6 C 14.4 C
08.07.2003 05:00 14.2 C 92 % 1022.1 hPa 0.0 l/m 0.0 km/h (0 Bft) N 12.9 C 14.2 C
08.07.2003 06:00 14.3 C 90 % 1022.1 hPa 0.0 l/m 0.5 km/h (0 Bft) O-SO 12.7 C 14.3 C
08.07.2003 07:00 15.8 C 81 % 1022.1 hPa 0.0 l/m 0.0 km/h (0 Bft) N 12.5 C 15.8 C
08.07.2003 08:00 17.3 C 70 % 1022.1 hPa 0.0 l/m 0.0 km/h (0 Bft) N 11.9 C 17.3 C
08.07.2003 09:00 19.4 C 61 % 1022.1 hPa 0.0 l/m 0.3 km/h (0 Bft) W-NW 11.6 C 19.4 C
08.07.2003 10:00 21.6 C 52 % 1022.1 hPa 0.0 l/m 1.6 km/h (1 Bft) W-NW 11.3 C 21.6 C
08.07.2003 11:00 23.8 C 42 % 1021.6 hPa 0.0 l/m 2.2 km/h (1 Bft) NW 10.1 C 23.8 C
08.07.2003 12:00 25.4 C 38 % 1021.1 hPa 0.0 l/m 1.9 km/h (1 Bft) NW 10.0 C 25.4 C
08.07.2003 13:00 26.7 C 34 % 1020.8 hPa 0.0 l/m 5.0 km/h (1 Bft) NW 9.5 C 26.7 C
08.07.2003 14:00 27.9 C 30 % 1020.0 hPa 0.0 l/m 4.8 km/h (1 Bft) NW 8.6 C 27.9 C
08.07.2003 15:00 28.7 C 28 % 1019.5 hPa 0.0 l/m 7.0 km/h (2 Bft) W-NW 8.4 C 28.7 C
08.07.2003 16:00 29.1 C 26 % 1019.0 hPa 0.0 l/m 5.6 km/h (1 Bft) NW 7.7 C 29.1 C
08.07.2003 17:00 28.4 C 27 % 1018.9 hPa 0.0 l/m 10.8 km/h (2 Bft) NW 7.7 C 28.4 C
08.07.2003 18:00 27.9 C 32 % 1018.0 hPa 0.0 l/m 14.0 km/h (3 Bft) NW 9.4 C 27.9 C
08.07.2003 19:00 27.0 C 39 % 1018.5 hPa 0.0 l/m 11.8 km/h (2 Bft) NW 11.8 C 27.0 C
08.07.2003 20:00 25.2 C 43 % 1019.0 hPa 0.0 l/m 4.4 km/h (1 Bft) NW 11.7 C 25.2 C
08.07.2003 21:00 22.7 C 49 % 1019.0 hPa 0.0 l/m 0.2 km/h (0 Bft) S 11.2 C 22.7 C
08.07.2003 22:00 20.2 C 53 % 1019.3 hPa 0.0 l/m 1.3 km/h (1 Bft) SO 10.4 C 20.2 C
08.07.2003 23:00 18.4 C 62 % 1019.7 hPa 0.0 l/m 0.8 km/h (0 Bft) SO 11.0 C 18.4 C
09.07.2003 00:00 17.1 C 68 % 1019.9 hPa 0.0 l/m 0.5 km/h (0 Bft) SO 11.2 C 17.1 C
09.07.2003 01:00 15.5 C 77 % 1020.0 hPa 0.0 l/m 0.0 km/h (0 Bft) N 11.4 C 15.5 C
09.07.2003 02:00 14.8 C 80 % 1019.6 hPa 0.0 l/m 0.3 km/h (0 Bft) SO 11.4 C 14.8 C
09.07.2003 03:00 14.1 C 83 % 1019.4 hPa 0.0 l/m 0.0 km/h (0 Bft) N 11.2 C 14.1 C
09.07.2003 04:00 13.7 C 87 % 1019.2 hPa 0.0 l/m 1.5 km/h (1 Bft) SO 11.5 C 13.7 C
09.07.2003 05:00 13.3 C 90 % 1019.1 hPa 0.0 l/m 0.8 km/h (0 Bft) O-SO 11.6 C 13.3 C
09.07.2003 06:00 13.8 C 87 % 1019.1 hPa 0.0 l/m 0.0 km/h (0 Bft) N 11.7 C 13.8 C
09.07.2003 07:00 16.0 C 75 % 1019.0 hPa 0.0 l/m 0.2 km/h (0 Bft) SO 11.5 C 16.0 C
09.07.2003 08:00 17.3 C 68 % 1019.9 hPa 0.0 l/m 0.0 km/h (0 Bft) N 11.4 C 17.3 C
09.07.2003 09:00 18.9 C 61 % 1020.0 hPa 0.0 l/m 0.2 km/h (0 Bft) W-NW 11.2 C 18.9 C
09.07.2003 10:00 20.4 C 56 % 1020.0 hPa 0.0 l/m 0.1 km/h (0 Bft) N 11.3 C 20.4 C
09.07.2003 11:00 22.2 C 51 % 1019.4 hPa 0.0 l/m 0.6 km/h (0 Bft) NW 11.7 C 22.2 C
09.07.2003 12:00 24.3 C 43 % 1019.0 hPa 0.0 l/m 1.9 km/h (1 Bft) W-NW 10.9 C 24.3 C
09.07.2003 13:00 26.6 C 35 % 1018.6 hPa 0.0 l/m 1.8 km/h (1 Bft) SO 9.9 C 26.6 C
09.07.2003 14:00 27.9 C 32 % 1018.0 hPa 0.0 l/m 2.5 km/h (1 Bft) NW 9.5 C 27.9 C
09.07.2003 15:00 29.1 C 31 % 1017.5 hPa 0.0 l/m 1.9 km/h (1 Bft) SO 10.1 C 29.1 C
09.07.2003 16:00 28.8 C 30 % 1016.9 hPa 0.0 l/m 1.4 km/h (1 Bft) NW 9.6 C 28.8 C
09.07.2003 17:00 29.5 C 30 % 1016.9 hPa 0.0 l/m 5.4 km/h (1 Bft) NW 9.9 C 29.5 C
09.07.2003 18:00 28.3 C 34 % 1016.9 hPa 0.0 l/m 5.1 km/h (1 Bft) NW 10.8 C 28.3 C
09.07.2003 19:00 26.8 C 39 % 1016.9 hPa 0.0 l/m 0.7 km/h (0 Bft) N-NO 11.5 C 26.8 C
09.07.2003 20:00 26.1 C 42 % 1017.4 hPa 0.0 l/m 3.4 km/h (1 Bft) NO 12.3 C 26.1 C
09.07.2003 21:00 24.1 C 45 % 1018.2 hPa 0.0 l/m 0.9 km/h (0 Bft) N-NO 11.3 C 24.1 C
09.07.2003 22:00 22.2 C 49 % 1019.0 hPa 0.0 l/m 0.3 km/h (0 Bft) N-NO 10.8 C 22.2 C
09.07.2003 23:00 21.2 C 55 % 1019.0 hPa 0.0 l/m 0.7 km/h (0 Bft) N 11.8 C 21.2 C
10.07.2003 00:00 19.6 C 59 % 1020.0 hPa 0.0 l/m 0.5 km/h (0 Bft) O-SO 11.3 C 19.6 C
10.07.2003 01:00 17.9 C 67 % 1020.0 hPa 0.0 l/m 0.4 km/h (0 Bft) N 11.7 C 17.9 C
10.07.2003 02:00 18.0 C 66 % 1020.0 hPa 0.0 l/m 0.1 km/h (0 Bft) O 11.5 C 18.0 C
10.07.2003 03:00 16.8 C 73 % 1020.0 hPa 0.0 l/m 2.6 km/h (1 Bft) O-SO 12.0 C 16.8 C
10.07.2003 04:00 16.1 C 80 % 1019.2 hPa 0.0 l/m 0.0 km/h (0 Bft) N 12.7 C 16.1 C
10.07.2003 05:00 15.0 C 86 % 1019.0 hPa 0.0 l/m 0.0 km/h (0 Bft) N 12.8 C 15.0 C
10.07.2003 06:00 14.7 C 86 % 1019.2 hPa 0.0 l/m 0.5 km/h (0 Bft) O-SO 12.4 C 14.7 C
10.07.2003 07:00 16.1 C 82 % 1020.0 hPa 0.0 l/m 0.0 km/h (0 Bft) N 13.0 C 16.1 C
10.07.2003 08:00 18.0 C 69 % 1020.0 hPa 0.0 l/m 0.2 km/h (0 Bft) W-NW 12.3 C 18.0 C
10.07.2003 09:00 19.7 C 62 % 1020.0 hPa 0.0 l/m 0.6 km/h (0 Bft) W-NW 12.1 C 19.7 C
10.07.2003 10:00 22.0 C 51 % 1020.0 hPa 0.0 l/m 3.0 km/h (1 Bft) NW 11.4 C 22.0 C
10.07.2003 11:00 24.1 C 44 % 1019.6 hPa 0.0 l/m 2.0 km/h (1 Bft) NW 10.9 C 24.1 C
10.07.2003 12:00 25.9 C 40 % 1019.0 hPa 0.0 l/m 3.3 km/h (1 Bft) O-SO 11.2 C 25.9 C
10.07.2003 13:00 27.5 C 35 % 1019.0 hPa 0.0 l/m 2.8 km/h (1 Bft) NW 10.7 C 27.5 C
10.07.2003 14:00 28.5 C 32 % 1018.2 hPa 0.0 l/m 5.3 km/h (1 Bft) NW 10.2 C 28.5 C
10.07.2003 15:00 29.6 C 28 % 1018.0 hPa 0.0 l/m 10.5 km/h (2 Bft) W-NW 9.4 C 29.6 C
10.07.2003 16:00 29.9 C 28 % 1017.9 hPa 0.0 l/m 10.6 km/h (2 Bft) NW 9.2 C 29.9 C
10.07.2003 17:00 29.9 C 26 % 1017.4 hPa 0.0 l/m 13.4 km/h (3 Bft) NW 8.3 C 29.9 C
10.07.2003 18:00 29.7 C 30 % 1016.9 hPa 0.0 l/m 18.9 km/h (3 Bft) NW 10.3 C 29.7 C
10.07.2003 19:00 28.5 C 28 % 1016.9 hPa 0.0 l/m 17.8 km/h (3 Bft) NW 8.4 C 28.5 C
10.07.2003 20:00 26.7 C 37 % 1017.4 hPa 0.0 l/m 13.9 km/h (3 Bft) NW 10.6 C 26.7 C
10.07.2003 21:00 23.6 C 45 % 1018.0 hPa 0.0 l/m 1.5 km/h (1 Bft) W-NW 10.8 C 23.6 C
10.07.2003 22:00 20.6 C 51 % 1019.0 hPa 0.0 l/m 1.1 km/h (1 Bft) O-SO 10.1 C 20.6 C
10.07.2003 23:00 19.1 C 61 % 1019.0 hPa 0.0 l/m 1.7 km/h (1 Bft) O-SO 11.3 C 19.1 C
11.07.2003 00:00 17.9 C 67 % 1019.0 hPa 0.0 l/m 4.5 km/h (1 Bft) O-SO 11.7 C 17.9 C
11.07.2003 01:00 16.7 C 73 % 1019.9 hPa 0.0 l/m 0.5 km/h (0 Bft) O-SO 11.8 C 16.7 C
11.07.2003 02:00 15.6 C 81 % 1020.0 hPa 0.0 l/m 1.3 km/h (1 Bft) O-SO 12.3 C 15.6 C
11.07.2003 03:00 14.9 C 83 % 1019.9 hPa 0.0 l/m 1.1 km/h (0 Bft) O-SO 12.1 C 14.9 C
11.07.2003 04:00 14.4 C 86 % 1020.0 hPa 0.0 l/m 3.5 km/h (1 Bft) O-SO 12.1 C 14.4 C
11.07.2003 05:00 13.8 C 92 % 1020.0 hPa 0.0 l/m 2.8 km/h (1 Bft) O-SO 12.5 C 13.8 C
11.07.2003 06:00 13.8 C 89 % 1019.9 hPa 0.0 l/m 0.0 km/h (0 Bft) N 12.0 C 13.8 C
11.07.2003 07:00 15.6 C 82 % 1020.0 hPa 0.0 l/m 0.5 km/h (0 Bft) O-SO 12.6 C 15.6 C
11.07.2003 08:00 17.6 C 70 % 1020.0 hPa 0.0 l/m 0.0 km/h (0 Bft) N 12.1 C 17.6 C
11.07.2003 09:00 20.2 C 59 % 1020.0 hPa 0.0 l/m 0.8 km/h (0 Bft) W-NW 11.9 C 20.2 C
11.07.2003 10:00 23.4 C 47 % 1020.0 hPa 0.0 l/m 0.8 km/h (0 Bft) SO 11.4 C 23.4 C
11.07.2003 11:00 25.8 C 37 % 1019.0 hPa 0.0 l/m 4.9 km/h (1 Bft) NW 9.8 C 25.8 C
11.07.2003 12:00 26.9 C 34 % 1019.0 hPa 0.0 l/m 5.1 km/h (1 Bft) NW 9.6 C 26.9 C
11.07.2003 13:00 28.4 C 32 % 1019.0 hPa 0.0 l/m 2.6 km/h (1 Bft) NW 9.9 C 28.4 C
11.07.2003 14:00 29.6 C 30 % 1019.0 hPa 0.0 l/m 3.0 km/h (1 Bft) W-NW 10.1 C 29.6 C
11.07.2003 15:00 30.2 C 27 % 1018.5 hPa 0.0 l/m 6.8 km/h (2 Bft) NW 9.0 C 30.2 C
11.07.2003 16:00 30.9 C 25 % 1018.0 hPa 0.0 l/m 6.1 km/h (2 Bft) NW 8.7 C 30.9 C
11.07.2003 17:00 31.2 C 25 % 1018.0 hPa 0.0 l/m 7.1 km/h (2 Bft) NW 8.8 C 31.2 C
11.07.2003 18:00 31.0 C 28 % 1018.0 hPa 0.0 l/m 6.9 km/h (2 Bft) NW 10.2 C 31.0 C
11.07.2003 19:00 29.7 C 30 % 1018.0 hPa 0.0 l/m 12.9 km/h (3 Bft) NW 10.1 C 29.7 C
11.07.2003 20:00 28.2 C 32 % 1018.0 hPa 0.0 l/m 7.3 km/h (2 Bft) NW 10.1 C 28.2 C
11.07.2003 21:00 24.5 C 39 % 1018.7 hPa 0.0 l/m 2.3 km/h (1 Bft) O-SO 9.7 C 24.5 C
11.07.2003 22:00 21.2 C 49 % 1019.0 hPa 0.0 l/m 6.9 km/h (2 Bft) O-SO 9.9 C 21.2 C
11.07.2003 23:00 18.9 C 59 % 1019.0 hPa 0.0 l/m 3.5 km/h (1 Bft) O-SO 10.6 C 18.9 C
12.07.2003 00:00 17.6 C 64 % 1019.0 hPa 0.0 l/m 3.5 km/h (1 Bft) O-SO 10.8 C 17.6 C
12.07.2003 01:00 16.6 C 72 % 1019.0 hPa 0.0 l/m 3.7 km/h (1 Bft) O-SO 11.5 C 16.6 C
12.07.2003 02:00 15.6 C 77 % 1019.0 hPa 0.0 l/m 2.8 km/h (1 Bft) O-SO 11.6 C 15.6 C
12.07.2003 03:00 14.8 C 80 % 1019.0 hPa 0.0 l/m 0.6 km/h (0 Bft) O-SO 11.3 C 14.8 C
12.07.2003 04:00 14.0 C 84 % 1019.0 hPa 0.0 l/m 2.4 km/h (1 Bft) O-SO 11.4 C 14.0 C
12.07.2003 05:00 13.8 C 87 % 1020.0 hPa 0.0 l/m 3.7 km/h (1 Bft) O-SO 11.7 C 13.8 C
12.07.2003 06:00 14.2 C 85 % 1020.0 hPa 0.0 l/m 1.0 km/h (0 Bft) O-SO 11.6 C 14.2 C
12.07.2003 07:00 15.8 C 77 % 1020.0 hPa 0.0 l/m 0.0 km/h (0 Bft) N 11.8 C 15.8 C
12.07.2003 08:00 18.2 C 67 % 1020.0 hPa 0.0 l/m 2.0 km/h (1 Bft) O-SO 12.1 C 18.2 C
12.07.2003 09:00 21.0 C 58 % 1020.0 hPa 0.0 l/m 2.1 km/h (1 Bft) O-SO 12.5 C 21.0 C
12.07.2003 10:00 24.1 C 48 % 1020.0 hPa 0.0 l/m 1.8 km/h (1 Bft) O-SO 12.2 C 24.1 C
12.07.2003 11:00 26.7 C 40 % 1020.0 hPa 0.0 l/m 3.2 km/h (1 Bft) O-SO 11.7 C 26.7 C
12.07.2003 12:00 28.7 C 35 % 1019.1 hPa 0.0 l/m 5.3 km/h (1 Bft) W-NW 11.6 C 28.7 C
12.07.2003 13:00 29.8 C 29 % 1018.9 hPa 0.0 l/m 9.6 km/h (2 Bft) NW 9.9 C 29.8 C
12.07.2003 14:00 30.7 C 25 % 1018.0 hPa 0.0 l/m 11.7 km/h (2 Bft) NW 8.6 C 30.7 C
12.07.2003 15:00 31.5 C 25 % 1018.0 hPa 0.0 l/m 15.8 km/h (3 Bft) NW 9.1 C 31.5 C
12.07.2003 16:00 31.3 C 25 % 1018.0 hPa 0.0 l/m 18.4 km/h (3 Bft) NW 8.9 C 31.3 C
12.07.2003 17:00 30.8 C 25 % 1018.0 hPa 0.0 l/m 15.8 km/h (3 Bft) NW 8.5 C 30.8 C
12.07.2003 18:00 29.6 C 30 % 1018.0 hPa 0.0 l/m 11.8 km/h (2 Bft) NW 10.2 C 29.6 C
12.07.2003 19:00 28.5 C 38 % 1018.0 hPa 0.0 l/m 11.6 km/h (2 Bft) NW 12.5 C 28.5 C
12.07.2003 20:00 27.4 C 42 % 1018.0 hPa 0.0 l/m 6.5 km/h (2 Bft) NW 13.2 C 27.4 C
12.07.2003 21:00 25.4 C 46 % 1018.4 hPa 0.0 l/m 1.4 km/h (1 Bft) N-NW 13.0 C 25.4 C
12.07.2003 22:00 23.8 C 52 % 1019.0 hPa 0.0 l/m 1.7 km/h (1 Bft) NO 13.3 C 23.8 C
12.07.2003 23:00 22.6 C 53 % 1020.0 hPa 0.0 l/m 0.9 km/h (0 Bft) O-SO 12.6 C 22.6 C
13.07.2003 00:00 21.2 C 53 % 1019.9 hPa 0.0 l/m 0.4 km/h (0 Bft) O-SO 11.2 C 21.2 C
13.07.2003 01:00 20.2 C 54 % 1019.7 hPa 0.0 l/m 0.6 km/h (0 Bft) O-SO 10.6 C 20.2 C
13.07.2003 02:00 18.8 C 55 % 1019.0 hPa 0.0 l/m 0.5 km/h (0 Bft) O-SO 9.6 C 18.8 C
13.07.2003 03:00 18.3 C 55 % 1019.0 hPa 0.0 l/m 0.5 km/h (0 Bft) O 9.2 C 18.3 C
13.07.2003 04:00 17.3 C 55 % 1019.0 hPa 0.0 l/m 0.1 km/h (0 Bft) N 8.2 C 17.3 C
13.07.2003 05:00 16.9 C 56 % 1019.0 hPa 0.0 l/m 1.3 km/h (1 Bft) O-SO 7.9 C 16.9 C
13.07.2003 06:00 16.4 C 59 % 1019.0 hPa 0.0 l/m 0.5 km/h (0 Bft) N 8.5 C 16.4 C
13.07.2003 07:00 16.9 C 59 % 1019.3 hPa 0.0 l/m 0.0 km/h (0 Bft) N 8.7 C 16.9 C
13.07.2003 08:00 18.7 C 51 % 1019.0 hPa 0.0 l/m 1.0 km/h (0 Bft) O 8.3 C 18.7 C
13.07.2003 09:00 20.8 C 46 % 1019.0 hPa 0.0 l/m 4.5 km/h (1 Bft) O-SO 8.6 C 20.8 C
13.07.2003 10:00 23.1 C 41 % 1019.2 hPa 0.0 l/m 6.8 km/h (2 Bft) O-SO 9.0 C 23.1 C
13.07.2003 11:00 25.4 C 35 % 1019.0 hPa 0.0 l/m 14.4 km/h (3 Bft) O-SO 8.9 C 25.4 C
13.07.2003 12:00 27.2 C 32 % 1018.2 hPa 0.0 l/m 14.7 km/h (3 Bft) O-SO 9.0 C 27.2 C
13.07.2003 13:00 28.6 C 29 % 1017.3 hPa 0.0 l/m 11.1 km/h (2 Bft) O-SO 9.0 C 28.6 C
13.07.2003 14:00 29.9 C 28 % 1016.8 hPa 0.0 l/m 9.6 km/h (2 Bft) O-SO 9.2 C 29.9 C
13.07.2003 15:00 30.6 C 26 % 1015.9 hPa 0.0 l/m 14.6 km/h (3 Bft) O-SO 9.1 C 30.6 C
13.07.2003 16:00 30.7 C 28 % 1015.9 hPa 0.0 l/m 16.8 km/h (3 Bft) O-SO 10.0 C 30.7 C
13.07.2003 17:00 30.4 C 29 % 1015.9 hPa 0.0 l/m 18.9 km/h (3 Bft) O-SO 10.6 C 30.4 C
13.07.2003 18:00 29.4 C 32 % 1015.9 hPa 0.0 l/m 20.0 km/h (4 Bft) O-SO 10.9 C 29.4 C
13.07.2003 19:00 28.3 C 32 % 1015.9 hPa 0.0 l/m 14.0 km/h (3 Bft) O-SO 10.2 C 28.3 C
13.07.2003 20:00 26.7 C 35 % 1015.9 hPa 0.0 l/m 7.4 km/h (2 Bft) O-SO 9.8 C 26.7 C
13.07.2003 21:00 23.6 C 42 % 1015.9 hPa 0.0 l/m 0.2 km/h (0 Bft) N 9.7 C 23.6 C
13.07.2003 22:00 21.3 C 46 % 1015.9 hPa 0.0 l/m 0.0 km/h (0 Bft) N 9.2 C 21.3 C
13.07.2003 23:00 19.9 C 52 % 1015.9 hPa 0.0 l/m 0.0 km/h (0 Bft) N 9.7 C 19.9 C
Min-Datum _ 07.07.03 07.07.03 13.07.03 - 07.07.03 - 07.07.03 07.07.03
_ Min-Zeit 06:04 16:46 14:56 - 00:01 - 19:13 06:04
Minimum _ 12.1 C 25 % 1015.9 hPa - 0.0 km/h (0 Bft) - 5.2 C 12.1 C
Max-Datum _ 12.07.03 07.07.03 07.07.03 07.07.03 10.07.03 - 12.07.03 12.07.03
_ Max-Zeit 15:32 04:49 07:49 00:01 18:46 - 22:56 15:32
Maximum _ 31.9 C 100 % 1023.1 hPa 0.0 l/m 31.5 km/h
NW (5 Bft)
- 14.7 C 31.9 C
Durchschnitt _ 22.0 C 54 % 1019.4 hPa #0.0 l/m 4.0 km/h (1 Bft) NW 10.8 C 22.0 C

Durchschnitt Minimum Temp.21.0 C
Durchschnitt Maximum Temp.23.1 C
© Kaiko 2003